Terminal Aerodrome Forecast
Issued by NWS Bismarck, ND

Home | Current Version | Previous Version | Text Only | Print | Product List | Glossary Off
Versions: 1 2 3 4 5 6 7 8 9 10 11 12 13 14 15 16 17 18 19

000
FTUS43 KBIS 231120
TAFISN
TAF
KISN 231120Z 2312/2412 03004KT P6SM SCT020 OVC035
     FM232000 04004KT P6SM VCSH BKN045 BKN050
     FM240100 03004KT P6SM VCSH BKN030 OVC045
     FM240600 36004KT P6SM -SHRA OVC025=

USA.gov is the U.S. government's official web portal to all federal, state and local government web resources and services.